Terminal Aerodrome Forecast
Issued by NWS Duluth, MN

Home | Current Version | Previous Version | Text Only | Print | Product List | Glossary On
Versions: 1 2 3 4 5 6 7 8 9 10 11 12 13 14 15 16 17 18 19 20
000
FTUS43 KDLH 220520
TAFDLH
TAF
KDLH 220520Z 2206/2306 23004KT P6SM SKC
     FM220900 21006KT P6SM SCT060 WS010/23035KT
     FM221400 21011G14KT P6SM SKC
     FM221700 20015G22KT P6SM SKC
     FM222300 20012KT P6SM SKC=

USA.gov is the U.S. government's official web portal to all federal, state and local government web resources and services.